sensor_id;sensor_type;location;lat;lon;timestamp;temperature;humidity
71672;DHT22;62112;45.638;11.714;2022-10-22T00:00:15;24.00;76.80
71672;DHT22;62112;45.638;11.714;2022-10-22T00:02:42;23.90;77.00
71672;DHT22;62112;45.638;11.714;2022-10-22T00:05:09;23.90;76.80
71672;DHT22;62112;45.638;11.714;2022-10-22T00:07:35;24.00;77.00
71672;DHT22;62112;45.638;11.714;2022-10-22T00:10:02;23.90;77.00
71672;DHT22;62112;45.638;11.714;2022-10-22T00:12:28;24.00;77.20
71672;DHT22;62112;45.638;11.714;2022-10-22T00:14:54;23.90;77.20
71672;DHT22;62112;45.638;11.714;2022-10-22T00:17:20;23.80;77.50
71672;DHT22;62112;45.638;11.714;2022-10-22T00:19:46;23.80;77.70
71672;DHT22;62112;45.638;11.714;2022-10-22T00:22:12;23.90;77.70
71672;DHT22;62112;45.638;11.714;2022-10-22T00:24:38;23.90;77.50
71672;DHT22;62112;45.638;11.714;2022-10-22T00:27:07;23.90;77.90
71672;DHT22;62112;45.638;11.714;2022-10-22T00:29:33;23.90;78.00
71672;DHT22;62112;45.638;11.714;2022-10-22T00:31:59;23.90;78.00
71672;DHT22;62112;45.638;11.714;2022-10-22T00:34:25;23.90;78.00
71672;DHT22;62112;45.638;11.714;2022-10-22T00:36:51;23.90;78.00
71672;DHT22;62112;45.638;11.714;2022-10-22T00:39:20;23.80;78.20
71672;DHT22;62112;45.638;11.714;2022-10-22T00:41:48;23.80;78.40
71672;DHT22;62112;45.638;11.714;2022-10-22T00:47:18;23.80;78.80
71672;DHT22;62112;45.638;11.714;2022-10-22T00:49:45;23.80;78.50
71672;DHT22;62112;45.638;11.714;2022-10-22T00:52:12;23.80;78.30
71672;DHT22;62112;45.638;11.714;2022-10-22T00:54:39;23.80;78.50
71672;DHT22;62112;45.638;11.714;2022-10-22T00:57:06;23.90;78.60
71672;DHT22;62112;45.638;11.714;2022-10-22T00:59:32;23.70;78.60
71672;DHT22;62112;45.638;11.714;2022-10-22T01:01:59;23.80;78.80
71672;DHT22;62112;45.638;11.714;2022-10-22T01:04:25;23.80;78.50
71672;DHT22;62112;45.638;11.714;2022-10-22T01:06:51;23.80;79.30
71672;DHT22;62112;45.638;11.714;2022-10-22T01:09:35;23.70;79.10
71672;DHT22;62112;45.638;11.714;2022-10-22T01:25:37;23.80;80.10
71672;DHT22;62112;45.638;11.714;2022-10-22T01:30:58;23.70;80.20
71672;DHT22;62112;45.638;11.714;2022-10-22T01:33:26;23.70;79.90
71672;DHT22;62112;45.638;11.714;2022-10-22T01:35:53;23.70;80.10
71672;DHT22;62112;45.638;11.714;2022-10-22T01:38:21;23.60;80.30
71672;DHT22;62112;45.638;11.714;2022-10-22T01:40:50;23.70;80.10
71672;DHT22;62112;45.638;11.714;2022-10-22T01:43:17;23.70;80.50
71672;DHT22;62112;45.638;11.714;2022-10-22T01:45:49;23.70;80.50
71672;DHT22;62112;45.638;11.714;2022-10-22T02:07:17;23.60;82.00
71672;DHT22;62112;45.638;11.714;2022-10-22T02:09:45;23.60;80.90
71672;DHT22;62112;45.638;11.714;2022-10-22T02:12:12;23.60;81.70
71672;DHT22;62112;45.638;11.714;2022-10-22T02:14:41;23.60;80.90
71672;DHT22;62112;45.638;11.714;2022-10-22T02:17:11;23.60;82.00
71672;DHT22;62112;45.638;11.714;2022-10-22T02:19:55;23.50;82.00
71672;DHT22;62112;45.638;11.714;2022-10-22T02:22:22;23.60;82.00
71672;DHT22;62112;45.638;11.714;2022-10-22T02:24:49;23.60;82.00
71672;DHT22;62112;45.638;11.714;2022-10-22T02:27:31;23.50;81.90
71672;DHT22;62112;45.638;11.714;2022-10-22T02:30:04;23.50;82.40
71672;DHT22;62112;45.638;11.714;2022-10-22T02:32:40;23.50;82.20
71672;DHT22;62112;45.638;11.714;2022-10-22T02:35:10;23.50;82.30
71672;DHT22;62112;45.638;11.714;2022-10-22T02:37:38;23.50;82.30
71672;DHT22;62112;45.638;11.714;2022-10-22T02:40:05;23.50;82.20
71672;DHT22;62112;45.638;11.714;2022-10-22T02:42:31;23.50;82.30
71672;DHT22;62112;45.638;11.714;2022-10-22T02:44:57;23.60;82.20
71672;DHT22;62112;45.638;11.714;2022-10-22T02:47:23;23.60;82.20
71672;DHT22;62112;45.638;11.714;2022-10-22T02:49:49;23.60;82.30
71672;DHT22;62112;45.638;11.714;2022-10-22T02:52:15;23.60;82.30
71672;DHT22;62112;45.638;11.714;2022-10-22T02:54:41;23.50;82.40
71672;DHT22;62112;45.638;11.714;2022-10-22T02:57:06;23.50;82.50
71672;DHT22;62112;45.638;11.714;2022-10-22T02:59:32;23.50;82.40
71672;DHT22;62112;45.638;11.714;2022-10-22T03:01:58;23.50;82.50
71672;DHT22;62112;45.638;11.714;2022-10-22T03:04:24;23.50;82.60
71672;DHT22;62112;45.638;11.714;2022-10-22T03:06:50;23.50;82.60
71672;DHT22;62112;45.638;11.714;2022-10-22T03:09:16;23.50;82.40
71672;DHT22;62112;45.638;11.714;2022-10-22T03:11:42;23.50;82.70
71672;DHT22;62112;45.638;11.714;2022-10-22T03:14:08;23.50;82.50
71672;DHT22;62112;45.638;11.714;2022-10-22T03:16:33;23.50;82.70
71672;DHT22;62112;45.638;11.714;2022-10-22T03:18:59;23.40;82.70
71672;DHT22;62112;45.638;11.714;2022-10-22T03:24:03;23.40;83.00
71672;DHT22;62112;45.638;11.714;2022-10-22T03:26:30;23.50;82.80
71672;DHT22;62112;45.638;11.714;2022-10-22T03:28:57;23.50;82.80
71672;DHT22;62112;45.638;11.714;2022-10-22T03:31:25;23.40;82.70
71672;DHT22;62112;45.638;11.714;2022-10-22T03:33:51;23.50;82.90
71672;DHT22;62112;45.638;11.714;2022-10-22T03:36:17;23.50;82.70
71672;DHT22;62112;45.638;11.714;2022-10-22T03:38:43;23.50;82.70
71672;DHT22;62112;45.638;11.714;2022-10-22T03:41:09;23.50;83.00
71672;DHT22;62112;45.638;11.714;2022-10-22T03:43:35;23.50;82.80
71672;DHT22;62112;45.638;11.714;2022-10-22T03:46:02;23.50;82.80
71672;DHT22;62112;45.638;11.714;2022-10-22T03:48:28;23.50;82.70
71672;DHT22;62112;45.638;11.714;2022-10-22T03:50:54;23.50;82.80
71672;DHT22;62112;45.638;11.714;2022-10-22T03:53:20;23.40;82.90
71672;DHT22;62112;45.638;11.714;2022-10-22T03:55:46;23.50;83.00
71672;DHT22;62112;45.638;11.714;2022-10-22T03:58:11;23.50;82.80
71672;DHT22;62112;45.638;11.714;2022-10-22T04:00:37;23.40;82.90
71672;DHT22;62112;45.638;11.714;2022-10-22T04:03:03;23.50;83.00
71672;DHT22;62112;45.638;11.714;2022-10-22T04:05:31;23.50;83.00
71672;DHT22;62112;45.638;11.714;2022-10-22T04:07:57;23.50;83.00
71672;DHT22;62112;45.638;11.714;2022-10-22T04:10:23;23.40;82.90
71672;DHT22;62112;45.638;11.714;2022-10-22T04:12:49;23.40;83.00
71672;DHT22;62112;45.638;11.714;2022-10-22T04:15:15;23.40;82.90
71672;DHT22;62112;45.638;11.714;2022-10-22T04:17:40;23.40;83.00
71672;DHT22;62112;45.638;11.714;2022-10-22T04:20:07;23.40;83.30
71672;DHT22;62112;45.638;11.714;2022-10-22T04:22:33;23.40;83.10
71672;DHT22;62112;45.638;11.714;2022-10-22T04:25:00;23.40;83.20
71672;DHT22;62112;45.638;11.714;2022-10-22T04:27:29;23.40;83.10
71672;DHT22;62112;45.638;11.714;2022-10-22T04:29:55;23.30;83.20
71672;DHT22;62112;45.638;11.714;2022-10-22T04:32:26;23.40;83.10
71672;DHT22;62112;45.638;11.714;2022-10-22T04:34:58;23.40;83.30
71672;DHT22;62112;45.638;11.714;2022-10-22T04:37:24;23.40;83.30
71672;DHT22;62112;45.638;11.714;2022-10-22T04:39:50;23.30;83.20
71672;DHT22;62112;45.638;11.714;2022-10-22T04:42:16;23.40;83.20
71672;DHT22;62112;45.638;11.714;2022-10-22T04:44:42;23.40;83.30
71672;DHT22;62112;45.638;11.714;2022-10-22T04:47:07;23.40;83.20
71672;DHT22;62112;45.638;11.714;2022-10-22T04:49:33;23.30;83.30
71672;DHT22;62112;45.638;11.714;2022-10-22T04:51:59;23.30;83.30
71672;DHT22;62112;45.638;11.714;2022-10-22T04:54:25;23.40;83.30
71672;DHT22;62112;45.638;11.714;2022-10-22T04:56:51;23.40;83.40
71672;DHT22;62112;45.638;11.714;2022-10-22T04:59:16;23.40;83.40
71672;DHT22;62112;45.638;11.714;2022-10-22T05:01:43;23.30;83.30
71672;DHT22;62112;45.638;11.714;2022-10-22T05:04:15;23.40;83.50
71672;DHT22;62112;45.638;11.714;2022-10-22T05:06:42;23.40;83.50
71672;DHT22;62112;45.638;11.714;2022-10-22T05:09:14;23.40;83.50
71672;DHT22;62112;45.638;11.714;2022-10-22T05:11:43;23.40;83.40
71672;DHT22;62112;45.638;11.714;2022-10-22T05:14:11;23.40;83.30
71672;DHT22;62112;45.638;11.714;2022-10-22T05:16:37;23.30;83.40
71672;DHT22;62112;45.638;11.714;2022-10-22T05:19:04;23.40;83.30
71672;DHT22;62112;45.638;11.714;2022-10-22T05:21:30;23.30;83.50
71672;DHT22;62112;45.638;11.714;2022-10-22T05:23:56;23.30;83.40
71672;DHT22;62112;45.638;11.714;2022-10-22T05:26:25;23.30;83.40
71672;DHT22;62112;45.638;11.714;2022-10-22T05:28:51;23.40;83.50
71672;DHT22;62112;45.638;11.714;2022-10-22T05:31:17;23.40;83.30
71672;DHT22;62112;45.638;11.714;2022-10-22T05:33:44;23.40;83.50
71672;DHT22;62112;45.638;11.714;2022-10-22T05:36:15;23.40;83.30
71672;DHT22;62112;45.638;11.714;2022-10-22T05:38:41;23.30;83.60
71672;DHT22;62112;45.638;11.714;2022-10-22T05:41:13;23.40;83.40
71672;DHT22;62112;45.638;11.714;2022-10-22T05:43:39;23.40;83.60
71672;DHT22;62112;45.638;11.714;2022-10-22T05:46:10;23.40;83.50
71672;DHT22;62112;45.638;11.714;2022-10-22T05:48:36;23.30;83.40
71672;DHT22;62112;45.638;11.714;2022-10-22T05:51:12;23.40;83.60
71672;DHT22;62112;45.638;11.714;2022-10-22T05:53:40;23.30;83.60
71672;DHT22;62112;45.638;11.714;2022-10-22T05:56:13;23.30;83.80
71672;DHT22;62112;45.638;11.714;2022-10-22T05:58:42;23.30;83.60
71672;DHT22;62112;45.638;11.714;2022-10-22T06:01:16;23.30;83.50
71672;DHT22;62112;45.638;11.714;2022-10-22T06:03:48;23.30;83.70
71672;DHT22;62112;45.638;11.714;2022-10-22T06:06:32;23.30;83.60
71672;DHT22;62112;45.638;11.714;2022-10-22T06:09:02;23.40;83.70
71672;DHT22;62112;45.638;11.714;2022-10-22T06:11:32;23.30;83.60
71672;DHT22;62112;45.638;11.714;2022-10-22T06:13:59;23.30;83.50
71672;DHT22;62112;45.638;11.714;2022-10-22T06:16:28;23.20;83.60
71672;DHT22;62112;45.638;11.714;2022-10-22T06:18:59;23.30;83.50
71672;DHT22;62112;45.638;11.714;2022-10-22T06:21:30;23.30;83.80
71672;DHT22;62112;45.638;11.714;2022-10-22T06:23:58;23.30;83.70
71672;DHT22;62112;45.638;11.714;2022-10-22T06:26:26;23.20;83.40
71672;DHT22;62112;45.638;11.714;2022-10-22T06:28:53;23.30;83.70
71672;DHT22;62112;45.638;11.714;2022-10-22T06:31:21;23.30;83.50
71672;DHT22;62112;45.638;11.714;2022-10-22T06:33:47;23.30;83.70
71672;DHT22;62112;45.638;11.714;2022-10-22T06:36:15;23.30;83.70
71672;DHT22;62112;45.638;11.714;2022-10-22T06:38:42;23.30;83.80
71672;DHT22;62112;45.638;11.714;2022-10-22T06:41:13;23.20;83.80
71672;DHT22;62112;45.638;11.714;2022-10-22T06:43:41;23.30;83.90
71672;DHT22;62112;45.638;11.714;2022-10-22T06:46:11;23.30;83.90
71672;DHT22;62112;45.638;11.714;2022-10-22T06:48:38;23.30;83.80
71672;DHT22;62112;45.638;11.714;2022-10-22T06:51:10;23.30;83.80
71672;DHT22;62112;45.638;11.714;2022-10-22T06:53:37;23.40;83.90
71672;DHT22;62112;45.638;11.714;2022-10-22T06:56:13;23.30;84.00
71672;DHT22;62112;45.638;11.714;2022-10-22T06:58:39;23.30;84.00
71672;DHT22;62112;45.638;11.714;2022-10-22T07:01:09;23.40;83.80
71672;DHT22;62112;45.638;11.714;2022-10-22T07:03:36;23.30;83.80
71672;DHT22;62112;45.638;11.714;2022-10-22T07:06:04;23.30;84.00
71672;DHT22;62112;45.638;11.714;2022-10-22T07:08:31;23.30;84.20
71672;DHT22;62112;45.638;11.714;2022-10-22T07:11:05;23.30;84.00
71672;DHT22;62112;45.638;11.714;2022-10-22T07:13:32;23.30;84.10
71672;DHT22;62112;45.638;11.714;2022-10-22T07:15:58;23.30;84.10
71672;DHT22;62112;45.638;11.714;2022-10-22T07:18:24;23.30;84.00
71672;DHT22;62112;45.638;11.714;2022-10-22T07:20:50;23.30;84.10
71672;DHT22;62112;45.638;11.714;2022-10-22T07:23:16;23.20;84.10
71672;DHT22;62112;45.638;11.714;2022-10-22T07:25:42;23.30;84.00
71672;DHT22;62112;45.638;11.714;2022-10-22T07:28:08;23.40;84.00
71672;DHT22;62112;45.638;11.714;2022-10-22T07:30:36;23.30;83.90
71672;DHT22;62112;45.638;11.714;2022-10-22T07:33:02;23.30;84.00
71672;DHT22;62112;45.638;11.714;2022-10-22T07:35:28;23.30;84.00
71672;DHT22;62112;45.638;11.714;2022-10-22T07:37:54;23.40;84.00
71672;DHT22;62112;45.638;11.714;2022-10-22T07:40:22;23.30;83.90
71672;DHT22;62112;45.638;11.714;2022-10-22T07:42:49;23.30;84.10
71672;DHT22;62112;45.638;11.714;2022-10-22T07:45:15;23.30;84.00
71672;DHT22;62112;45.638;11.714;2022-10-22T07:47:41;23.30;83.80
71672;DHT22;62112;45.638;11.714;2022-10-22T07:50:08;23.30;83.80
71672;DHT22;62112;45.638;11.714;2022-10-22T07:52:34;23.30;83.90
71672;DHT22;62112;45.638;11.714;2022-10-22T07:55:00;23.30;83.70
71672;DHT22;62112;45.638;11.714;2022-10-22T07:57:26;23.40;83.70
71672;DHT22;62112;45.638;11.714;2022-10-22T07:59:52;23.30;83.80
71672;DHT22;62112;45.638;11.714;2022-10-22T08:02:17;23.30;83.70
71672;DHT22;62112;45.638;11.714;2022-10-22T08:04:43;23.40;83.70
71672;DHT22;62112;45.638;11.714;2022-10-22T08:07:09;23.40;83.80
71672;DHT22;62112;45.638;11.714;2022-10-22T08:09:35;23.30;83.80
71672;DHT22;62112;45.638;11.714;2022-10-22T08:12:01;23.30;83.70
71672;DHT22;62112;45.638;11.714;2022-10-22T08:14:27;23.40;83.90
71672;DHT22;62112;45.638;11.714;2022-10-22T08:16:53;23.40;83.80
71672;DHT22;62112;45.638;11.714;2022-10-22T08:19:19;23.30;83.70
71672;DHT22;62112;45.638;11.714;2022-10-22T08:21:46;23.40;83.80
71672;DHT22;62112;45.638;11.714;2022-10-22T08:24:12;23.40;83.80
71672;DHT22;62112;45.638;11.714;2022-10-22T08:26:39;23.40;83.80
71672;DHT22;62112;45.638;11.714;2022-10-22T08:29:05;23.30;83.80
71672;DHT22;62112;45.638;11.714;2022-10-22T08:31:31;23.30;84.00
71672;DHT22;62112;45.638;11.714;2022-10-22T08:33:56;23.40;83.90
71672;DHT22;62112;45.638;11.714;2022-10-22T08:36:22;23.40;83.90
71672;DHT22;62112;45.638;11.714;2022-10-22T08:38:48;23.40;83.90
71672;DHT22;62112;45.638;11.714;2022-10-22T08:41:19;23.40;83.90
71672;DHT22;62112;45.638;11.714;2022-10-22T08:47:00;23.40;83.80
71672;DHT22;62112;45.638;11.714;2022-10-22T08:49:37;23.40;83.70
71672;DHT22;62112;45.638;11.714;2022-10-22T08:52:07;23.40;83.70
71672;DHT22;62112;45.638;11.714;2022-10-22T08:54:42;23.40;83.50
71672;DHT22;62112;45.638;11.714;2022-10-22T09:02:54;23.40;83.60
71672;DHT22;62112;45.638;11.714;2022-10-22T09:08:11;23.50;83.50
71672;DHT22;62112;45.638;11.714;2022-10-22T09:10:42;23.40;83.50
71672;DHT22;62112;45.638;11.714;2022-10-22T09:13:17;23.40;83.50
71672;DHT22;62112;45.638;11.714;2022-10-22T09:15:49;23.60;83.40
71672;DHT22;62112;45.638;11.714;2022-10-22T09:18:43;23.50;83.30
71672;DHT22;62112;45.638;11.714;2022-10-22T09:26:24;23.60;81.80
71672;DHT22;62112;45.638;11.714;2022-10-22T09:28:52;23.60;81.90
71672;DHT22;62112;45.638;11.714;2022-10-22T09:31:18;23.60;82.70
71672;DHT22;62112;45.638;11.714;2022-10-22T09:33:50;23.60;82.50
71672;DHT22;62112;45.638;11.714;2022-10-22T09:36:19;23.60;82.40
71672;DHT22;62112;45.638;11.714;2022-10-22T09:38:48;23.60;82.30
71672;DHT22;62112;45.638;11.714;2022-10-22T09:41:16;23.60;82.40
71672;DHT22;62112;45.638;11.714;2022-10-22T09:43:42;23.60;81.40
71672;DHT22;62112;45.638;11.714;2022-10-22T09:46:18;23.60;82.40
71672;DHT22;62112;45.638;11.714;2022-10-22T09:49:08;23.60;81.50
71672;DHT22;62112;45.638;11.714;2022-10-22T09:51:39;23.60;82.40
71672;DHT22;62112;45.638;11.714;2022-10-22T09:54:21;23.60;81.50
71672;DHT22;62112;45.638;11.714;2022-10-22T09:57:19;23.50;82.50
71672;DHT22;62112;45.638;11.714;2022-10-22T09:59:48;23.70;81.70
71672;DHT22;62112;45.638;11.714;2022-10-22T10:02:20;23.60;82.80
71672;DHT22;62112;45.638;11.714;2022-10-22T10:04:50;23.60;82.10
71672;DHT22;62112;45.638;11.714;2022-10-22T10:07:21;23.60;83.00
71672;DHT22;62112;45.638;11.714;2022-10-22T10:09:48;23.60;82.80
71672;DHT22;62112;45.638;11.714;2022-10-22T10:12:49;23.60;82.10
71672;DHT22;62112;45.638;11.714;2022-10-22T10:15:27;23.60;83.30
71672;DHT22;62112;45.638;11.714;2022-10-22T10:20:33;23.60;82.60
71672;DHT22;62112;45.638;11.714;2022-10-22T10:26:25;23.70;82.90
71672;DHT22;62112;45.638;11.714;2022-10-22T10:29:05;23.60;83.50
71672;DHT22;62112;45.638;11.714;2022-10-22T10:34:24;23.60;84.60
71672;DHT22;62112;45.638;11.714;2022-10-22T10:37:10;23.60;83.40
71672;DHT22;62112;45.638;11.714;2022-10-22T10:40:06;23.60;83.80
71672;DHT22;62112;45.638;11.714;2022-10-22T10:45:23;23.70;83.70
71672;DHT22;62112;45.638;11.714;2022-10-22T10:48:09;23.60;83.90
71672;DHT22;62112;45.638;11.714;2022-10-22T10:51:37;23.60;84.10
71672;DHT22;62112;45.638;11.714;2022-10-22T10:56:48;23.60;85.10
71672;DHT22;62112;45.638;11.714;2022-10-22T11:05:33;23.70;84.20
71672;DHT22;62112;45.638;11.714;2022-10-22T11:08:22;23.60;85.20
71672;DHT22;62112;45.638;11.714;2022-10-22T11:10:53;23.70;84.30
71672;DHT22;62112;45.638;11.714;2022-10-22T11:13:38;23.70;84.20
71672;DHT22;62112;45.638;11.714;2022-10-22T11:16:17;23.70;84.00
71672;DHT22;62112;45.638;11.714;2022-10-22T11:19:00;23.80;84.00
71672;DHT22;62112;45.638;11.714;2022-10-22T11:21:35;23.90;84.00
71672;DHT22;62112;45.638;11.714;2022-10-22T11:24:19;23.80;83.80
71672;DHT22;62112;45.638;11.714;2022-10-22T11:26:56;23.90;83.90
71672;DHT22;62112;45.638;11.714;2022-10-22T11:29:34;23.90;83.80
71672;DHT22;62112;45.638;11.714;2022-10-22T11:32:05;23.90;83.60
71672;DHT22;62112;45.638;11.714;2022-10-22T11:34:48;23.90;83.60
71672;DHT22;62112;45.638;11.714;2022-10-22T11:37:14;24.00;83.70
71672;DHT22;62112;45.638;11.714;2022-10-22T11:39:50;24.00;83.50
71672;DHT22;62112;45.638;11.714;2022-10-22T11:42:35;24.00;83.40
71672;DHT22;62112;45.638;11.714;2022-10-22T11:50:55;24.10;82.90
71672;DHT22;62112;45.638;11.714;2022-10-22T11:55:55;24.10;82.80
71672;DHT22;62112;45.638;11.714;2022-10-22T12:01:39;24.20;82.30
71672;DHT22;62112;45.638;11.714;2022-10-22T12:04:40;24.20;81.80
71672;DHT22;62112;45.638;11.714;2022-10-22T12:07:33;24.20;81.60
71672;DHT22;62112;45.638;11.714;2022-10-22T12:10:03;24.20;81.50
71672;DHT22;62112;45.638;11.714;2022-10-22T12:12:35;24.20;81.80
71672;DHT22;62112;45.638;11.714;2022-10-22T12:15:24;24.20;81.50
71672;DHT22;62112;45.638;11.714;2022-10-22T12:17:59;24.30;81.00
71672;DHT22;62112;45.638;11.714;2022-10-22T12:20:27;24.20;81.10
71672;DHT22;62112;45.638;11.714;2022-10-22T12:22:54;24.30;81.20
71672;DHT22;62112;45.638;11.714;2022-10-22T12:25:23;24.40;80.80
71672;DHT22;62112;45.638;11.714;2022-10-22T12:27:52;24.30;80.40
71672;DHT22;62112;45.638;11.714;2022-10-22T12:30:35;24.30;80.10
71672;DHT22;62112;45.638;11.714;2022-10-22T12:33:05;24.40;79.00
71672;DHT22;62112;45.638;11.714;2022-10-22T12:35:33;24.30;79.50
71672;DHT22;62112;45.638;11.714;2022-10-22T12:38:18;24.40;79.20
71672;DHT22;62112;45.638;11.714;2022-10-22T12:40:45;24.30;78.80
71672;DHT22;62112;45.638;11.714;2022-10-22T12:43:23;24.30;79.00
71672;DHT22;62112;45.638;11.714;2022-10-22T12:45:51;24.30;78.40
71672;DHT22;62112;45.638;11.714;2022-10-22T12:48:27;24.30;78.60
71672;DHT22;62112;45.638;11.714;2022-10-22T12:50:58;24.30;78.10
71672;DHT22;62112;45.638;11.714;2022-10-22T12:53:34;24.30;78.30
71672;DHT22;62112;45.638;11.714;2022-10-22T12:56:09;24.30;78.10
71672;DHT22;62112;45.638;11.714;2022-10-22T12:58:52;24.20;78.20
71672;DHT22;62112;45.638;11.714;2022-10-22T13:01:36;24.20;78.40
71672;DHT22;62112;45.638;11.714;2022-10-22T13:07:15;24.20;78.50
71672;DHT22;62112;45.638;11.714;2022-10-22T13:09:42;24.20;78.50
71672;DHT22;62112;45.638;11.714;2022-10-22T13:12:10;24.10;78.70
71672;DHT22;62112;45.638;11.714;2022-10-22T13:14:42;24.20;78.60
71672;DHT22;62112;45.638;11.714;2022-10-22T13:17:13;24.20;78.70
71672;DHT22;62112;45.638;11.714;2022-10-22T13:19:46;24.10;78.60
71672;DHT22;62112;45.638;11.714;2022-10-22T13:22:29;24.10;78.60
71672;DHT22;62112;45.638;11.714;2022-10-22T13:27:30;24.10;78.90
71672;DHT22;62112;45.638;11.714;2022-10-22T13:35:30;24.10;78.70
71672;DHT22;62112;45.638;11.714;2022-10-22T13:37:57;24.00;78.80
71672;DHT22;62112;45.638;11.714;2022-10-22T13:40:23;24.10;79.00
71672;DHT22;62112;45.638;11.714;2022-10-22T13:42:48;24.10;78.80
71672;DHT22;62112;45.638;11.714;2022-10-22T13:45:16;24.10;78.70
71672;DHT22;62112;45.638;11.714;2022-10-22T13:47:52;24.00;78.80
71672;DHT22;62112;45.638;11.714;2022-10-22T13:50:20;24.10;78.80
71672;DHT22;62112;45.638;11.714;2022-10-22T13:52:52;24.00;78.90
71672;DHT22;62112;45.638;11.714;2022-10-22T13:55:23;24.00;79.20
71672;DHT22;62112;45.638;11.714;2022-10-22T13:58:14;24.00;79.30
71672;DHT22;62112;45.638;11.714;2022-10-22T14:00:49;24.00;79.50
71672;DHT22;62112;45.638;11.714;2022-10-22T14:03:19;24.00;79.40
71672;DHT22;62112;45.638;11.714;2022-10-22T14:05:47;23.90;79.20
71672;DHT22;62112;45.638;11.714;2022-10-22T14:08:19;23.90;79.30
71672;DHT22;62112;45.638;11.714;2022-10-22T14:10:47;24.00;79.40
71672;DHT22;62112;45.638;11.714;2022-10-22T14:13:15;24.00;79.90
71672;DHT22;62112;45.638;11.714;2022-10-22T14:15:45;23.90;79.60
71672;DHT22;62112;45.638;11.714;2022-10-22T14:18:15;24.00;79.60
71672;DHT22;62112;45.638;11.714;2022-10-22T14:20:50;24.00;79.80
71672;DHT22;62112;45.638;11.714;2022-10-22T14:23:20;24.00;79.50
71672;DHT22;62112;45.638;11.714;2022-10-22T14:25:46;24.00;79.30
71672;DHT22;62112;45.638;11.714;2022-10-22T14:28:13;24.00;79.50
71672;DHT22;62112;45.638;11.714;2022-10-22T14:30:40;24.00;79.60
71672;DHT22;62112;45.638;11.714;2022-10-22T14:33:22;24.00;79.60
71672;DHT22;62112;45.638;11.714;2022-10-22T14:35:49;24.00;79.60
71672;DHT22;62112;45.638;11.714;2022-10-22T14:38:17;24.00;79.80
71672;DHT22;62112;45.638;11.714;2022-10-22T14:40:44;24.00;79.70
71672;DHT22;62112;45.638;11.714;2022-10-22T14:43:19;24.00;79.80
71672;DHT22;62112;45.638;11.714;2022-10-22T14:45:45;24.00;80.30
71672;DHT22;62112;45.638;11.714;2022-10-22T14:48:10;24.00;80.00
71672;DHT22;62112;45.638;11.714;2022-10-22T14:50:36;24.00;80.30
71672;DHT22;62112;45.638;11.714;2022-10-22T14:53:05;24.00;80.20
71672;DHT22;62112;45.638;11.714;2022-10-22T14:55:31;24.00;80.40
71672;DHT22;62112;45.638;11.714;2022-10-22T14:57:56;24.00;80.50
71672;DHT22;62112;45.638;11.714;2022-10-22T15:00:22;23.90;80.70
71672;DHT22;62112;45.638;11.714;2022-10-22T15:02:48;24.00;80.60
71672;DHT22;62112;45.638;11.714;2022-10-22T15:05:15;23.90;80.80
71672;DHT22;62112;45.638;11.714;2022-10-22T15:07:43;23.90;81.00
71672;DHT22;62112;45.638;11.714;2022-10-22T15:10:09;24.00;81.20
71672;DHT22;62112;45.638;11.714;2022-10-22T15:12:35;23.90;81.10
71672;DHT22;62112;45.638;11.714;2022-10-22T15:15:01;23.90;81.30
71672;DHT22;62112;45.638;11.714;2022-10-22T15:17:27;23.90;81.40
71672;DHT22;62112;45.638;11.714;2022-10-22T15:19:53;23.90;81.50
71672;DHT22;62112;45.638;11.714;2022-10-22T15:22:21;23.90;81.70
71672;DHT22;62112;45.638;11.714;2022-10-22T15:24:47;23.90;81.80
71672;DHT22;62112;45.638;11.714;2022-10-22T15:27:14;23.80;82.00
71672;DHT22;62112;45.638;11.714;2022-10-22T15:29:41;23.90;82.10
71672;DHT22;62112;45.638;11.714;2022-10-22T15:32:07;23.90;82.00
71672;DHT22;62112;45.638;11.714;2022-10-22T15:34:38;23.80;82.20
71672;DHT22;62112;45.638;11.714;2022-10-22T15:37:06;23.90;82.20
71672;DHT22;62112;45.638;11.714;2022-10-22T15:39:32;23.80;82.30
71672;DHT22;62112;45.638;11.714;2022-10-22T15:41:58;23.80;82.30
71672;DHT22;62112;45.638;11.714;2022-10-22T15:44:29;23.90;82.50
71672;DHT22;62112;45.638;11.714;2022-10-22T15:46:56;23.80;82.50
71672;DHT22;62112;45.638;11.714;2022-10-22T15:49:24;23.80;82.60
71672;DHT22;62112;45.638;11.714;2022-10-22T15:51:51;23.80;82.60
71672;DHT22;62112;45.638;11.714;2022-10-22T15:54:20;23.70;82.60
71672;DHT22;62112;45.638;11.714;2022-10-22T15:56:46;23.70;82.90
71672;DHT22;62112;45.638;11.714;2022-10-22T15:59:14;23.80;82.90
71672;DHT22;62112;45.638;11.714;2022-10-22T16:01:40;23.70;82.70
71672;DHT22;62112;45.638;11.714;2022-10-22T16:04:06;23.70;82.80
71672;DHT22;62112;45.638;11.714;2022-10-22T16:06:35;23.70;82.90
71672;DHT22;62112;45.638;11.714;2022-10-22T16:09:05;23.70;83.00
71672;DHT22;62112;45.638;11.714;2022-10-22T16:11:31;23.70;83.00
71672;DHT22;62112;45.638;11.714;2022-10-22T16:13:58;23.70;82.90
71672;DHT22;62112;45.638;11.714;2022-10-22T16:16:27;23.70;83.00
71672;DHT22;62112;45.638;11.714;2022-10-22T16:18:53;23.70;83.10
71672;DHT22;62112;45.638;11.714;2022-10-22T16:21:20;23.70;83.00
71672;DHT22;62112;45.638;11.714;2022-10-22T16:23:47;23.70;83.10
71672;DHT22;62112;45.638;11.714;2022-10-22T16:26:13;23.60;83.00
71672;DHT22;62112;45.638;11.714;2022-10-22T16:28:40;23.60;83.10
71672;DHT22;62112;45.638;11.714;2022-10-22T16:31:09;23.60;83.20
71672;DHT22;62112;45.638;11.714;2022-10-22T16:33:36;23.60;84.10
71672;DHT22;62112;45.638;11.714;2022-10-22T16:36:07;23.60;84.10
71672;DHT22;62112;45.638;11.714;2022-10-22T16:38:33;23.60;83.10
71672;DHT22;62112;45.638;11.714;2022-10-22T16:41:14;23.70;83.10
71672;DHT22;62112;45.638;11.714;2022-10-22T16:43:44;23.60;84.30
71672;DHT22;62112;45.638;11.714;2022-10-22T16:46:13;23.60;84.40
71672;DHT22;62112;45.638;11.714;2022-10-22T16:48:46;23.60;83.10
71672;DHT22;62112;45.638;11.714;2022-10-22T16:51:13;23.60;84.30
71672;DHT22;62112;45.638;11.714;2022-10-22T16:53:39;23.50;84.30
71672;DHT22;62112;45.638;11.714;2022-10-22T16:56:14;23.60;84.40
71672;DHT22;62112;45.638;11.714;2022-10-22T16:58:45;23.60;84.40
71672;DHT22;62112;45.638;11.714;2022-10-22T17:01:12;23.60;84.40
71672;DHT22;62112;45.638;11.714;2022-10-22T17:03:38;23.50;84.50
71672;DHT22;62112;45.638;11.714;2022-10-22T17:06:05;23.60;84.40
71672;DHT22;62112;45.638;11.714;2022-10-22T17:08:33;23.50;84.40
71672;DHT22;62112;45.638;11.714;2022-10-22T17:11:08;23.60;84.80